Time;durP1;ratioP1;P1;durP2;ratioP2;P2;SDS_P1;SDS_P2;PMS_P1;PMS_P2;Temp;Humidity;BMP_temperature;BMP_pressure;BME280_temperature;BME280_humidity;BME280_pressure;Samples;Min_cycle;Max_cycle;Signal;HPM_P1;HPM_P2
2022/09/24 00:00:51;;;;;;;;;;;;;;;16.16;75.24;100234.75;5085205;28;1247;-83
2022/09/24 00:03:18;;;;;;;;;;;;;;;16.15;75.32;100225.66;5085774;28;1797;-83
2022/09/24 00:05:43;;;;;;;;;;;;;;;16.16;75.39;100226.47;5079961;28;1190;-84
2022/09/24 00:08:09;;;;;;;;;;;;;;;16.16;75.90;100230.03;5078141;28;1451;-84
2022/09/24 00:10:38;;;;;;;;;;;;;;;16.15;75.83;100230.38;5077776;28;1496;-84
2022/09/24 00:13:04;;;;;;;;;;;;;;;16.15;75.27;100225.66;5078586;28;1314;-84
2022/09/24 00:15:29;;;;;;;;;;;;;;;16.15;76.02;100219.34;5077491;28;1897;-85
2022/09/24 00:17:54;;;;;;;;;;;;;;;16.14;75.27;100221.28;5078845;28;1824;-84
2022/09/24 00:20:21;;;;;;;;;;;;;;;16.15;75.77;100217.38;5077150;28;1443;-84
2022/09/24 00:22:46;;;;;;;;;;;;;;;16.14;75.44;100213.00;5078468;28;1209;-84
2022/09/24 00:27:55;;;;;;;;;;;;;;;16.14;75.74;100215.75;5068146;28;1209;-84
2022/09/24 00:30:20;;;;;;;;;;;;;;;16.15;75.75;100222.91;5065661;28;1398;-84
2022/09/24 00:32:45;;;;;;;;;;;;;;;16.15;75.51;100222.91;5060555;28;1610;-85
2022/09/24 00:35:10;;;;;;;;;;;;;;;16.15;75.57;100213.81;5082247;28;1882;-83
2022/09/24 00:37:35;;;;;;;;;;;;;;;16.15;75.42;100219.34;5081469;28;1451;-83
2022/09/24 00:40:00;;;;;;;;;;;;;;;16.14;75.80;100207.47;5085698;28;1409;-83
2022/09/24 00:42:28;;;;;;;;;;;;;;;16.13;75.51;100214.13;5086329;28;1626;-83
2022/09/24 00:44:54;;;;;;;;;;;;;;;16.13;75.81;100208.59;5084351;28;1551;-83
2022/09/24 00:47:19;;;;;;;;;;;;;;;16.15;75.30;100202.75;5083996;28;1231;-84
2022/09/24 00:49:46;;;;;;;;;;;;;;;16.15;75.26;100194.47;5084047;28;1304;-83
2022/09/24 00:52:12;;;;;;;;;;;;;;;16.13;75.69;100194.81;5083918;28;1828;-83
2022/09/24 00:54:37;;;;;;;;;;;;;;;16.14;75.57;100181.81;5073216;28;1296;-85
2022/09/24 00:57:03;;;;;;;;;;;;;;;16.13;75.62;100189.28;5061432;28;1878;-84
2022/09/24 00:59:28;;;;;;;;;;;;;;;16.14;75.91;100192.84;5071812;28;1652;-84
2022/09/24 01:01:56;;;;;;;;;;;;;;;16.14;75.65;100190.09;5075414;28;1375;-85
2022/09/24 01:04:22;;;;;;;;;;;;;;;16.13;75.57;100186.50;5076883;28;1296;-84
2022/09/24 01:06:48;;;;;;;;;;;;;;;16.13;75.78;100189.28;5076499;28;1264;-84
2022/09/24 01:09:13;;;;;;;;;;;;;;;16.13;75.36;100185.69;5073095;28;1175;-84
2022/09/24 01:11:57;;;;;;;;;;;;;;;16.12;75.52;100187.66;5071622;28;1446;-84
2022/09/24 01:14:31;;;;;;;;;;;;;;;16.13;75.38;100191.22;5077428;28;1602;-84
2022/09/24 01:17:03;;;;;;;;;;;;;;;16.12;75.39;100190.41;5075092;28;1889;-84
2022/09/24 01:19:41;;;;;;;;;;;;;;;16.13;75.81;100197.56;5075578;28;1168;-84
2022/09/24 01:22:27;;;;;;;;;;;;;;;16.13;75.76;100199.50;5077502;28;1272;-85
2022/09/24 01:25:00;;;;;;;;;;;;;;;16.13;75.74;100188.47;5077374;28;1326;-85
2022/09/24 01:27:32;;;;;;;;;;;;;;;16.12;75.25;100189.59;5076175;28;1816;-85
2022/09/24 01:30:09;;;;;;;;;;;;;;;16.11;75.69;100186.03;5072784;28;1330;-85
2022/09/24 01:32:38;;;;;;;;;;;;;;;16.11;75.50;100190.72;5074732;28;1462;-84
2022/09/24 01:35:12;;;;;;;;;;;;;;;16.11;75.69;100186.03;5074868;28;1967;-84
2022/09/24 01:37:39;;;;;;;;;;;;;;;16.13;75.27;100180.19;5065682;28;1422;-85
2022/09/24 01:40:06;;;;;;;;;;;;;;;16.11;75.77;100177.75;5072837;28;1819;-84
2022/09/24 01:42:32;;;;;;;;;;;;;;;16.11;75.50;100185.19;5077011;28;1265;-84
2022/09/24 01:44:58;;;;;;;;;;;;;;;16.12;75.44;100181.31;5074768;28;1528;-85
2022/09/24 01:47:34;;;;;;;;;;;;;;;16.12;75.49;100171.09;5074186;28;1371;-84
2022/09/24 01:50:00;;;;;;;;;;;;;;;16.11;75.64;100174.97;5064441;28;1207;-84
2022/09/24 01:52:28;;;;;;;;;;;;;;;16.12;75.89;100170.28;5080682;28;1218;-84
2022/09/24 01:54:55;;;;;;;;;;;;;;;16.13;75.66;100166.38;5075452;28;1960;-84
2022/09/24 01:57:22;;;;;;;;;;;;;;;16.12;75.44;100165.56;5077208;28;1208;-84
2022/09/24 01:59:54;;;;;;;;;;;;;;;16.11;75.56;100169.44;5075588;28;1272;-84
2022/09/24 02:02:26;;;;;;;;;;;;;;;16.12;75.36;100173.03;5065977;28;1311;-84
2022/09/24 02:04:55;;;;;;;;;;;;;;;16.12;75.80;100164.75;5080697;28;1775;-84
2022/09/24 02:07:28;;;;;;;;;;;;;;;16.12;75.32;100165.56;5077634;28;1343;-84
2022/09/24 02:09:53;;;;;;;;;;;;;;;16.12;75.71;100150.94;5075335;28;1409;-85
2022/09/24 02:12:28;;;;;;;;;;;;;;;16.11;75.80;100155.66;5079141;28;1789;-82
2022/09/24 02:14:55;;;;;;;;;;;;;;;16.11;75.77;100157.59;5078734;28;1878;-83
2022/09/24 02:17:24;;;;;;;;;;;;;;;16.11;75.44;100163.13;5081830;28;1217;-83
2022/09/24 02:19:49;;;;;;;;;;;;;;;16.11;75.09;100161.16;5078713;28;1337;-83
2022/09/24 02:22:16;;;;;;;;;;;;;;;16.10;75.38;100154.03;5076029;28;1214;-84
2022/09/24 02:24:48;;;;;;;;;;;;;;;16.10;75.47;100151.25;5080588;28;1863;-82
2022/09/24 02:27:13;;;;;;;;;;;;;;;16.10;75.21;100148.50;5074005;28;1425;-84
2022/09/24 02:29:38;;;;;;;;;;;;;;;16.09;75.48;100149.63;5074680;22;2147;-80
2022/09/24 02:32:05;;;;;;;;;;;;;;;16.10;75.44;100142.16;5057951;28;1468;-80
2022/09/24 02:34:35;;;;;;;;;;;;;;;16.11;75.35;100141.84;5055113;28;1519;-80
2022/09/24 02:37:04;;;;;;;;;;;;;;;16.11;75.35;100135.50;5063501;28;1882;-80
2022/09/24 02:39:30;;;;;;;;;;;;;;;16.11;75.68;100136.31;5059223;28;1492;-80
2022/09/24 02:41:55;;;;;;;;;;;;;;;16.09;75.74;100130.31;5064397;28;1472;-80
2022/09/24 02:44:21;;;;;;;;;;;;;;;16.09;75.40;100135.81;5059545;28;1369;-81
2022/09/24 02:46:46;;;;;;;;;;;;;;;16.10;75.53;100133.88;5059695;28;1280;-81
2022/09/24 02:49:13;;;;;;;;;;;;;;;16.11;75.53;100130.81;5065157;28;1534;-81
2022/09/24 02:51:38;;;;;;;;;;;;;;;16.10;75.74;100120.88;5056927;28;1406;-81
2022/09/24 02:54:03;;;;;;;;;;;;;;;15.81;75.52;100076.59;5062294;28;1417;-81
2022/09/24 02:56:29;;;;;;;;;;;;;;;16.10;75.51;100128.34;5066163;28;1925;-80
2022/09/24 02:58:54;;;;;;;;;;;;;;;16.11;75.36;100129.97;5057827;28;1573;-80
2022/09/24 03:01:21;;;;;;;;;;;;;;;16.09;75.23;100122.03;5064963;28;1469;-80
2022/09/24 03:03:47;;;;;;;;;;;;;;;16.09;75.38;100119.25;5061122;28;1484;-80
2022/09/24 03:06:12;;;;;;;;;;;;;;;16.10;75.32;100118.13;5077966;28;1451;-81
2022/09/24 03:08:37;;;;;;;;;;;;;;;16.09;75.77;100122.03;5054408;28;1413;-79
2022/09/24 03:11:03;;;;;;;;;;;;;;;16.10;75.28;100129.16;5052458;28;1502;-78
2022/09/24 03:13:28;;;;;;;;;;;;;;;16.10;75.71;100126.41;5056850;28;1378;-79
2022/09/24 03:15:53;;;;;;;;;;;;;;;16.10;75.36;100129.16;5057142;28;1889;-78
2022/09/24 03:18:18;;;;;;;;;;;;;;;16.09;75.09;100130.31;5056083;28;1397;-78
2022/09/24 03:20:52;;;;;;;;;;;;;;;16.09;75.63;100133.06;5054322;28;1473;-78
2022/09/24 03:23:17;;;;;;;;;;;;;;;16.08;75.82;100131.44;5054437;28;1494;-78
2022/09/24 03:25:42;;;;;;;;;;;;;;;16.09;75.28;100122.03;5055239;28;1437;-80
2022/09/24 03:28:08;;;;;;;;;;;;;;;16.10;75.56;100126.41;5053901;28;1480;-80
2022/09/24 03:33:16;;;;;;;;;;;;;;;16.09;75.67;100119.25;5065298;28;1457;-80
2022/09/24 03:35:41;;;;;;;;;;;;;;;16.08;75.11;100123.16;5059366;28;1920;-80
2022/09/24 03:38:07;;;;;;;;;;;;;;;16.08;75.16;100125.09;5057058;28;1393;-80
2022/09/24 03:40:32;;;;;;;;;;;;;;;16.08;75.07;100117.63;5056474;28;1585;-80
2022/09/24 03:42:57;;;;;;;;;;;;;;;16.09;75.67;100113.75;5054801;28;1634;-79
2022/09/24 03:45:22;;;;;;;;;;;;;;;16.08;75.15;100119.59;5066709;28;1463;-80
2022/09/24 03:47:47;;;;;;;;;;;;;;;16.09;75.21;100102.69;5054674;28;1500;-80
2022/09/24 03:50:12;;;;;;;;;;;;;;;16.10;75.27;100109.03;5056389;28;1654;-80
2022/09/24 03:52:38;;;;;;;;;;;;;;;16.09;75.29;100110.16;5072198;28;1334;-80
2022/09/24 03:55:03;;;;;;;;;;;;;;;16.09;75.21;100097.16;5058497;28;1878;-80
2022/09/24 03:57:28;;;;;;;;;;;;;;;16.10;75.28;100104.31;5051262;28;1556;-80
2022/09/24 03:59:54;;;;;;;;;;;;;;;16.09;75.50;100099.13;5057866;28;1450;-81
2022/09/24 04:02:19;;;;;;;;;;;;;;;16.09;75.60;100099.94;5057956;28;1419;-80
2022/09/24 04:04:44;;;;;;;;;;;;;;;16.10;75.08;100104.31;5050781;28;1434;-78
2022/09/24 04:07:09;;;;;;;;;;;;;;;16.09;75.06;100099.94;5053590;28;1516;-78
2022/09/24 04:09:35;;;;;;;;;;;;;;;16.10;75.65;100104.31;5055467;28;1395;-80
2022/09/24 04:12:00;;;;;;;;;;;;;;;16.10;75.33;100100.75;5061499;28;1638;-81
2022/09/24 04:14:25;;;;;;;;;;;;;;;16.10;75.56;100101.56;5058306;28;1320;-80
2022/09/24 04:16:51;;;;;;;;;;;;;;;16.09;75.03;100102.69;5047261;28;1941;-79
2022/09/24 04:19:17;;;;;;;;;;;;;;;16.09;74.94;100107.41;5052179;28;1556;-79
2022/09/24 04:21:42;;;;;;;;;;;;;;;16.09;75.49;100110.97;5057430;28;1429;-77
2022/09/24 04:24:07;;;;;;;;;;;;;;;16.10;74.97;100103.50;5048214;28;1473;-79
2022/09/24 04:26:33;;;;;;;;;;;;;;;16.08;75.37;100103.81;5053805;28;1607;-80
2022/09/24 04:28:58;;;;;;;;;;;;;;;16.10;75.66;100114.56;5051401;28;1537;-80
2022/09/24 04:31:23;;;;;;;;;;;;;;;16.08;75.64;100103.81;5056444;28;1456;-81
2022/09/24 04:33:48;;;;;;;;;;;;;;;16.09;75.08;100107.41;5052862;28;1520;-80
2022/09/24 04:36:14;;;;;;;;;;;;;;;16.08;75.29;100098.31;5052251;28;1897;-79
2022/09/24 04:38:39;;;;;;;;;;;;;;;16.09;75.14;100105.47;5054101;28;1494;-80
2022/09/24 04:41:05;;;;;;;;;;;;;;;16.10;75.31;100109.03;5057616;28;1500;-80
2022/09/24 04:43:31;;;;;;;;;;;;;;;16.09;75.12;100110.97;5056637;28;1349;-78
2022/09/24 04:45:58;;;;;;;;;;;;;;;16.08;75.13;100114.88;5049714;28;1479;-79
2022/09/24 04:48:23;;;;;;;;;;;;;;;16.09;75.33;100110.97;5044513;28;1264;-79
2022/09/24 04:50:48;;;;;;;;;;;;;;;16.10;75.49;100112.59;5048329;28;1411;-79
2022/09/24 04:53:13;;;;;;;;;;;;;;;16.08;75.23;100109.34;5059772;28;1353;-80
2022/09/24 04:55:40;;;;;;;;;;;;;;;16.08;74.94;100117.63;5062346;28;1890;-79
2022/09/24 04:58:05;;;;;;;;;;;;;;;16.08;75.30;100109.34;5058032;28;1449;-81
2022/09/24 05:00:32;;;;;;;;;;;;;;;16.09;75.26;100112.94;5056706;28;1444;-79
2022/09/24 05:03:02;;;;;;;;;;;;;;;16.08;75.54;100114.88;5058997;28;1469;-79
2022/09/24 05:05:27;;;;;;;;;;;;;;;16.08;75.60;100116.81;5050536;28;1417;-79
2022/09/24 05:07:55;;;;;;;;;;;;;;;16.09;75.47;100108.22;5055834;28;1674;-80
2022/09/24 05:10:20;;;;;;;;;;;;;;;16.07;75.31;100115.22;5063587;28;1496;-79
2022/09/24 05:12:45;;;;;;;;;;;;;;;16.06;75.59;100117.16;5059429;28;1529;-80
2022/09/24 05:15:11;;;;;;;;;;;;;;;16.08;74.97;100109.34;5051518;28;1874;-79
2022/09/24 05:17:37;;;;;;;;;;;;;;;16.08;74.93;100108.53;5060753;28;1482;-80
2022/09/24 05:20:02;;;;;;;;;;;;;;;16.08;75.20;100106.59;5058240;28;1542;-80
2022/09/24 05:22:28;;;;;;;;;;;;;;;16.09;75.03;100104.63;5057642;28;1405;-80
2022/09/24 05:24:54;;;;;;;;;;;;;;;16.08;75.38;100103.00;5060117;28;1777;-79
2022/09/24 05:27:20;;;;;;;;;;;;;;;16.08;75.06;100106.59;5045761;28;1433;-79
2022/09/24 05:29:45;;;;;;;;;;;;;;;16.09;75.50;100110.16;5057711;28;1409;-79
2022/09/24 05:32:12;;;;;;;;;;;;;;;16.07;75.05;100113.28;5058089;28;1381;-79
2022/09/24 05:34:37;;;;;;;;;;;;;;;16.09;75.18;100104.63;5062655;28;1510;-80
2022/09/24 05:37:03;;;;;;;;;;;;;;;16.09;75.45;100110.16;5078913;28;1930;-81
2022/09/24 05:39:28;;;;;;;;;;;;;;;16.08;75.58;100106.59;5054897;28;1405;-79
2022/09/24 05:41:54;;;;;;;;;;;;;;;16.07;75.18;100105.00;5052765;28;1502;-79
2022/09/24 05:44:20;;;;;;;;;;;;;;;16.08;75.17;100108.53;5061160;28;1666;-80
2022/09/24 05:46:45;;;;;;;;;;;;;;;16.08;75.07;100108.53;5050628;28;1696;-79
2022/09/24 05:49:11;;;;;;;;;;;;;;;16.07;74.99;100109.69;5061799;28;1689;-81
2022/09/24 05:51:36;;;;;;;;;;;;;;;16.06;74.69;100110.84;5062760;28;1811;-80
2022/09/24 05:54:02;;;;;;;;;;;;;;;16.06;75.25;100108.06;5053753;28;1583;-80
2022/09/24 05:56:27;;;;;;;;;;;;;;;16.06;75.52;100111.66;5052867;28;1945;-80
2022/09/24 05:58:52;;;;;;;;;;;;;;;16.07;75.50;100127.09;5056718;28;1464;-79
2022/09/24 06:01:17;;;;;;;;;;;;;;;16.08;75.26;100130.63;5049514;28;1417;-80
2022/09/24 06:03:42;;;;;;;;;;;;;;;16.07;74.89;100123.50;5062855;28;1423;-80
2022/09/24 06:06:07;;;;;;;;;;;;;;;16.07;74.91;100132.59;5057785;28;1561;-80
2022/09/24 06:08:32;;;;;;;;;;;;;;;16.06;75.12;100130.97;5048648;28;1425;-80
2022/09/24 06:11:04;;;;;;;;;;;;;;;16.06;75.07;100130.97;5058002;28;1466;-80
2022/09/24 06:13:30;;;;;;;;;;;;;;;16.06;75.38;100122.69;5056008;28;1480;-80
2022/09/24 06:15:59;;;;;;;;;;;;;;;16.07;75.37;100131.78;5056891;28;1954;-80
2022/09/24 06:18:24;;;;;;;;;;;;;;;16.07;75.02;100112.47;5067585;28;1523;-79
2022/09/24 06:20:49;;;;;;;;;;;;;;;16.06;75.26;100111.66;5051984;28;1369;-80
2022/09/24 06:23:14;;;;;;;;;;;;;;;16.07;75.00;100113.28;5057931;28;1529;-80
2022/09/24 06:25:40;;;;;;;;;;;;;;;16.07;75.45;100118.00;5064719;28;1682;-80
2022/09/24 06:28:05;;;;;;;;;;;;;;;16.06;75.50;100106.13;5065141;28;1520;-79
2022/09/24 06:30:40;;;;;;;;;;;;;;;16.06;74.91;100106.13;5067174;28;1422;-80
2022/09/24 06:33:10;;;;;;;;;;;;;;;16.07;75.01;100112.47;5062727;28;1340;-80
2022/09/24 06:35:35;;;;;;;;;;;;;;;16.06;75.32;100111.66;5056743;28;1883;-79
2022/09/24 06:38:01;;;;;;;;;;;;;;;16.06;75.00;100116.34;5063715;28;1314;-79
2022/09/24 06:40:26;;;;;;;;;;;;;;;16.06;75.58;100113.59;5063955;28;868;-80
2022/09/24 06:42:52;;;;;;;;;;;;;;;16.05;75.05;100121.06;5064131;28;1431;-80
2022/09/24 06:45:17;;;;;;;;;;;;;;;16.04;74.83;100111.16;5059775;28;1557;-80
2022/09/24 06:47:42;;;;;;;;;;;;;;;16.05;74.83;100121.06;5051694;28;1277;-80
2022/09/24 06:50:08;;;;;;;;;;;;;;;16.06;75.41;100132.91;5062061;28;1600;-80
2022/09/24 06:52:33;;;;;;;;;;;;;;;16.06;75.17;100127.41;5047708;28;1177;-80
2022/09/24 06:54:58;;;;;;;;;;;;;;;16.06;75.19;100124.66;5046927;28;1937;-80
2022/09/24 06:57:23;;;;;;;;;;;;;;;16.06;74.93;100121.88;5051231;28;2018;-80
2022/09/24 06:59:50;;;;;;;;;;;;;;;16.06;75.45;100119.94;5052035;28;1377;-79
2022/09/24 07:02:15;;;;;;;;;;;;;;;16.05;75.35;100126.59;5050931;28;1073;-80
2022/09/24 07:04:40;;;;;;;;;;;;;;;16.05;75.21;100128.53;5051479;28;1691;-79
2022/09/24 07:09:49;;;;;;;;;;;;;;;16.06;75.27;100133.75;5052724;28;1634;-81
2022/09/24 07:12:14;;;;;;;;;;;;;;;16.07;75.29;100132.59;5055815;28;2051;-81
2022/09/24 07:14:39;;;;;;;;;;;;;;;16.08;75.26;100136.16;5062471;28;1978;-82
2022/09/24 07:17:05;;;;;;;;;;;;;;;16.07;75.54;100131.78;5052868;28;1918;-81
2022/09/24 07:19:30;;;;;;;;;;;;;;;16.08;75.30;100130.63;5062171;28;1607;-81
2022/09/24 07:21:55;;;;;;;;;;;;;;;16.07;75.32;100132.59;5063627;28;1870;-82
2022/09/24 07:24:20;;;;;;;;;;;;;;;16.08;75.11;100136.97;5062791;28;1828;-81
2022/09/24 07:26:45;;;;;;;;;;;;;;;16.07;75.35;100138.13;5053799;28;1823;-82
2022/09/24 07:29:11;;;;;;;;;;;;;;;16.08;75.35;100148.00;5051132;28;1909;-81
2022/09/24 07:31:36;;;;;;;;;;;;;;;16.07;75.53;100146.41;5053308;28;1660;-82
2022/09/24 07:34:01;;;;;;;;;;;;;;;16.07;75.19;100143.66;5053562;28;1654;-81
2022/09/24 07:36:29;;;;;;;;;;;;;;;16.08;75.21;100147.19;5058003;28;1967;-81
2022/09/24 07:38:54;;;;;;;;;;;;;;;16.08;75.11;100150.75;5061361;28;1972;-80
2022/09/24 07:41:20;;;;;;;;;;;;;;;16.08;75.49;100145.25;5051297;28;1491;-81
2022/09/24 07:43:45;;;;;;;;;;;;;;;16.08;75.33;100144.44;5057172;28;1816;-80
2022/09/24 07:46:10;;;;;;;;;;;;;;;16.08;75.40;100142.47;5062916;28;1543;-82
2022/09/24 07:48:35;;;;;;;;;;;;;;;16.09;74.89;100155.16;5064242;28;1390;-81
2022/09/24 07:51:00;;;;;;;;;;;;;;;16.09;75.46;100155.16;5061850;28;2059;-82
2022/09/24 07:53:25;;;;;;;;;;;;;;;16.10;75.11;100153.22;5062427;28;1885;-79
2022/09/24 07:55:51;;;;;;;;;;;;;;;16.12;75.55;100164.75;5065467;28;1878;-80
2022/09/24 07:58:17;;;;;;;;;;;;;;;16.11;74.92;100161.16;5065372;28;1201;-81
2022/09/24 08:00:42;;;;;;;;;;;;;;;16.11;75.30;100163.13;5063834;28;1308;-82
2022/09/24 08:03:07;;;;;;;;;;;;;;;16.12;75.38;100168.31;5064377;28;1499;-81
2022/09/24 08:05:32;;;;;;;;;;;;;;;16.12;74.82;100165.56;5051664;28;1346;-80
2022/09/24 08:07:57;;;;;;;;;;;;;;;16.11;74.78;100174.97;5067928;28;1775;-80
2022/09/24 08:10:23;;;;;;;;;;;;;;;16.12;75.42;100165.56;5063912;28;1719;-80
2022/09/24 08:12:49;;;;;;;;;;;;;;;16.12;74.64;100171.09;5067924;28;1389;-80
2022/09/24 08:15:14;;;;;;;;;;;;;;;16.14;75.26;100177.09;5055029;28;1871;-80
2022/09/24 08:17:39;;;;;;;;;;;;;;;16.13;75.02;100172.72;5059897;28;1764;-81
2022/09/24 08:20:05;;;;;;;;;;;;;;;16.13;75.07;100175.47;5055513;28;1426;-80
2022/09/24 08:22:30;;;;;;;;;;;;;;;16.15;74.97;100175.16;5055196;28;1431;-79
2022/09/24 08:24:56;;;;;;;;;;;;;;;16.14;75.31;100179.84;5056085;28;1633;-80
2022/09/24 08:27:22;;;;;;;;;;;;;;;16.14;75.34;100177.09;5050791;28;1422;-80
2022/09/24 08:29:48;;;;;;;;;;;;;;;16.14;75.25;100179.84;5050172;28;1188;-79
2022/09/24 08:32:13;;;;;;;;;;;;;;;16.14;75.31;100179.84;5052703;28;1780;-80
2022/09/24 08:34:39;;;;;;;;;;;;;;;16.14;75.12;100179.84;5067276;28;1662;-80
2022/09/24 08:37:04;;;;;;;;;;;;;;;16.13;75.01;100178.22;5051980;28;1971;-80
2022/09/24 08:39:29;;;;;;;;;;;;;;;16.13;75.13;100182.94;5065567;28;1291;-80
2022/09/24 08:41:56;;;;;;;;;;;;;;;16.13;75.10;100183.75;5046723;28;941;-80
2022/09/24 08:47:21;;;;;;;;;;;;;;;16.13;75.36;100181.00;5062436;28;1151;-82
2022/09/24 08:49:48;;;;;;;;;;;;;;;16.13;75.21;100183.75;5053620;28;1957;-81
2022/09/24 08:52:36;;;;;;;;;;;;;;;16.14;74.88;100185.38;5061821;28;1624;-83
2022/09/24 08:55:05;;;;;;;;;;;;;;;16.14;75.45;100185.38;5060120;28;1592;-80
2022/09/24 08:57:35;;;;;;;;;;;;;;;16.15;75.33;100198.06;5053340;28;2015;-82
2022/09/24 09:00:01;;;;;;;;;;;;;;;16.15;75.21;100191.72;5055922;28;1882;-80
2022/09/24 09:02:29;;;;;;;;;;;;;;;16.14;74.82;100193.66;5061938;28;2034;-81
2022/09/24 09:05:01;;;;;;;;;;;;;;;16.15;75.48;100197.25;5060736;28;1864;-81
2022/09/24 09:07:38;;;;;;;;;;;;;;;16.14;75.49;100198.38;5058417;28;1950;-81
2022/09/24 09:10:08;;;;;;;;;;;;;;;16.13;75.45;100200.31;5071192;28;2071;-81
2022/09/24 09:12:36;;;;;;;;;;;;;;;16.14;75.06;100196.44;5056206;28;1791;-81
2022/09/24 09:15:07;;;;;;;;;;;;;;;16.15;74.97;100197.25;5050879;28;2006;-81
2022/09/24 09:17:41;;;;;;;;;;;;;;;16.15;75.01;100197.25;5047110;28;1726;-82
2022/09/24 09:20:10;;;;;;;;;;;;;;;16.15;75.22;100198.06;5058087;28;2087;-82
2022/09/24 09:22:39;;;;;;;;;;;;;;;16.15;74.97;100194.47;5061998;28;1717;-80
2022/09/24 09:25:13;;;;;;;;;;;;;;;16.14;75.34;100196.44;5050951;28;2108;-82
2022/09/24 09:27:39;;;;;;;;;;;;;;;16.15;75.42;100198.06;5051105;28;1974;-82
2022/09/24 09:30:05;;;;;;;;;;;;;;;16.14;75.44;100190.09;5053624;28;1617;-81
2022/09/24 09:32:48;;;;;;;;;;;;;;;16.15;75.54;100197.25;5056429;28;1808;-82
2022/09/24 09:35:18;;;;;;;;;;;;;;;16.15;74.75;100192.53;5056283;28;2040;-80
2022/09/24 09:37:48;;;;;;;;;;;;;;;16.15;75.05;100198.06;5049987;28;1850;-82
2022/09/24 09:40:34;;;;;;;;;;;;;;;16.13;75.26;100189.28;5055999;28;1586;-82
2022/09/24 09:43:01;;;;;;;;;;;;;;;16.11;75.37;100179.69;5052107;28;1852;-80
2022/09/24 09:45:38;;;;;;;;;;;;;;;16.13;75.46;100186.50;5053032;28;1980;-82
2022/09/24 09:48:03;;;;;;;;;;;;;;;16.15;75.24;100189.78;5061723;28;1687;-82
2022/09/24 09:50:38;;;;;;;;;;;;;;;16.14;75.58;100185.38;5062246;28;1701;-82
2022/09/24 09:53:04;;;;;;;;;;;;;;;16.15;75.38;100183.44;5043338;28;1374;-82
2022/09/24 09:55:31;;;;;;;;;;;;;;;16.15;75.59;100187.00;5047672;28;1890;-80
2022/09/24 09:58:08;;;;;;;;;;;;;;;16.15;74.80;100186.19;5055718;28;1954;-81
2022/09/24 10:00:33;;;;;;;;;;;;;;;16.14;75.43;100184.56;5061956;28;1802;-80
2022/09/24 10:02:59;;;;;;;;;;;;;;;16.15;75.21;100192.53;5054299;28;2076;-81
2022/09/24 10:05:27;;;;;;;;;;;;;;;16.14;75.43;100187.31;5056216;28;2228;-82
2022/09/24 10:07:52;;;;;;;;;;;;;;;16.15;75.73;100194.47;5050780;28;1893;-80
2022/09/24 10:10:19;;;;;;;;;;;;;;;16.17;75.56;100183.91;5047855;28;1358;-81
2022/09/24 10:12:44;;;;;;;;;;;;;;;16.15;75.16;100181.50;5047222;28;1657;-82
2022/09/24 10:15:17;;;;;;;;;;;;;;;16.16;75.79;100191.38;5050113;28;1918;-81
2022/09/24 10:17:42;;;;;;;;;;;;;;;16.16;75.67;100183.09;5056908;28;1480;-81
2022/09/24 10:20:08;;;;;;;;;;;;;;;16.16;75.57;100179.53;5046166;28;1976;-82
2022/09/24 10:22:34;;;;;;;;;;;;;;;16.16;75.16;100188.59;5050109;28;1960;-80
2022/09/24 10:25:00;;;;;;;;;;;;;;;16.17;75.30;100186.66;5048188;28;1974;-81
2022/09/24 10:27:35;;;;;;;;;;;;;;;16.16;75.19;100185.06;5056965;28;2006;-80
2022/09/24 10:32:56;;;;;;;;;;;;;;;16.15;75.42;100181.50;5050748;28;1426;-82
2022/09/24 10:35:25;;;;;;;;;;;;;;;16.16;75.64;100182.31;5041890;28;1902;-80
2022/09/24 10:37:51;;;;;;;;;;;;;;;16.16;75.42;100176.78;5046030;28;1264;-82
2022/09/24 10:40:21;;;;;;;;;;;;;;;16.16;75.67;100177.56;5059291;28;1785;-81
2022/09/24 10:42:53;;;;;;;;;;;;;;;16.16;75.42;100180.31;5051221;28;1907;-81
2022/09/24 10:45:19;;;;;;;;;;;;;;;16.17;75.31;100178.38;5057057;28;2017;-82
2022/09/24 10:47:52;;;;;;;;;;;;;;;16.17;75.41;100178.38;5061213;28;2155;-81
2022/09/24 10:50:30;;;;;;;;;;;;;;;16.17;75.51;100184.72;5066413;28;2108;-82
2022/09/24 10:53:14;;;;;;;;;;;;;;;16.17;75.27;100173.66;5050336;28;1502;-81
2022/09/24 10:55:56;;;;;;;;;;;;;;;16.17;75.33;100173.66;5055950;28;1892;-81
2022/09/24 10:58:27;;;;;;;;;;;;;;;16.17;75.60;100184.72;5054340;28;1947;-82
2022/09/24 11:01:02;;;;;;;;;;;;;;;16.17;75.30;100173.66;5061009;28;1593;-80
2022/09/24 11:03:46;;;;;;;;;;;;;;;16.18;74.91;100167.00;5063281;28;1409;-80
2022/09/24 11:06:26;;;;;;;;;;;;;;;16.19;75.76;100174.16;5061958;28;2049;-81
2022/09/24 11:09:10;;;;;;;;;;;;;;;16.19;75.42;100165.06;5061882;28;1657;-81
2022/09/24 11:11:45;;;;;;;;;;;;;;;16.20;75.63;100166.69;5059982;28;2031;-81
2022/09/24 11:14:19;;;;;;;;;;;;;;;16.19;75.25;100163.13;5054110;28;1702;-80
2022/09/24 11:16:59;;;;;;;;;;;;;;;16.20;75.36;100167.50;5060804;28;1878;-80
2022/09/24 11:19:31;;;;;;;;;;;;;;;16.21;75.53;100163.59;5050960;28;1586;-82
2022/09/24 11:22:06;;;;;;;;;;;;;;;16.20;75.62;100164.75;5054255;28;1357;-82
2022/09/24 11:24:45;;;;;;;;;;;;;;;16.19;75.32;100168.63;5051133;28;2116;-81
2022/09/24 11:27:29;;;;;;;;;;;;;;;16.17;75.63;100165.38;5049817;28;1511;-80
2022/09/24 11:30:09;;;;;;;;;;;;;;;16.19;75.61;100167.81;5052502;28;2022;-82
2022/09/24 11:32:50;;;;;;;;;;;;;;;16.21;75.36;100171.06;5058225;28;1680;-82
2022/09/24 11:35:15;;;;;;;;;;;;;;;16.19;75.43;100174.16;5055544;28;1975;-81
2022/09/24 11:37:59;;;;;;;;;;;;;;;16.19;75.68;100170.59;5052391;28;1576;-81
2022/09/24 11:40:57;;;;;;;;;;;;;;;16.20;76.05;100167.50;5050950;28;1471;-79
2022/09/24 11:43:32;;;;;;;;;;;;;;;16.21;75.82;100174.66;5048170;28;1899;-82
2022/09/24 11:46:08;;;;;;;;;;;;;;;16.23;75.98;100171.56;5053476;28;1931;-81
2022/09/24 11:48:44;;;;;;;;;;;;;;;16.22;75.78;100164.41;5051620;28;1909;-80
2022/09/24 11:51:20;;;;;;;;;;;;;;;16.19;75.70;100165.06;5056898;28;1313;-79
2022/09/24 11:54:04;;;;;;;;;;;;;;;16.16;76.45;100169.28;5061122;28;1556;-80
2022/09/24 11:56:32;;;;;;;;;;;;;;;16.17;76.49;100167.31;5051931;28;1886;-80
2022/09/24 11:59:12;;;;;;;;;;;;;;;16.16;76.42;100169.28;5061623;28;1983;-80
2022/09/24 12:01:39;;;;;;;;;;;;;;;16.19;76.74;100160.34;5061556;28;1946;-79
2022/09/24 12:04:15;;;;;;;;;;;;;;;16.23;76.59;100163.28;5057841;28;2064;-79
2022/09/24 12:06:51;;;;;;;;;;;;;;;16.27;76.75;100165.06;5052248;28;1687;-80
2022/09/24 12:09:20;;;;;;;;;;;;;;;16.28;76.19;100161.16;5051082;28;2021;-78
2022/09/24 12:11:57;;;;;;;;;;;;;;;16.27;76.52;100165.06;5056835;28;1819;-81
2022/09/24 12:14:31;;;;;;;;;;;;;;;16.26;76.60;100166.19;5060370;28;1675;-80
2022/09/24 12:16:59;;;;;;;;;;;;;;;16.27;76.35;100165.06;5052383;28;1897;-79
2022/09/24 12:19:31;;;;;;;;;;;;;;;16.28;76.54;100163.09;5054442;28;1986;-80
2022/09/24 12:21:57;;;;;;;;;;;;;;;16.27;75.99;100158.72;5058301;28;1988;-80
2022/09/24 12:24:22;;;;;;;;;;;;;;;16.26;76.44;100166.19;5053398;28;2060;-80
2022/09/24 12:26:48;;;;;;;;;;;;;;;16.26;76.20;100155.13;5058511;28;1726;-81
2022/09/24 12:35:04;;;;;;;;;;;;;;;16.27;75.91;100164.25;5054842;28;1515;-80
2022/09/24 12:37:32;;;;;;;;;;;;;;;16.26;76.54;100160.66;5045934;28;1898;-80
2022/09/24 12:40:04;;;;;;;;;;;;;;;16.26;76.25;100166.19;5046825;28;1273;-81
2022/09/24 12:42:33;;;;;;;;;;;;;;;16.25;76.35;100161.78;5044034;28;1549;-79
2022/09/24 12:44:59;;;;;;;;;;;;;;;16.28;75.92;100154.81;5056198;28;1404;-80
2022/09/24 12:47:30;;;;;;;;;;;;;;;16.28;76.09;100163.09;5056173;28;1486;-79
2022/09/24 12:49:57;;;;;;;;;;;;;;;16.27;76.20;100156.78;5045813;28;1189;-81
2022/09/24 12:52:24;;;;;;;;;;;;;;;16.26;76.10;100155.13;5045002;28;842;-81
2022/09/24 12:54:55;;;;;;;;;;;;;;;16.27;76.24;100151.25;5045718;28;996;-81
2022/09/24 12:57:22;;;;;;;;;;;;;;;16.26;76.39;100146.84;5046717;28;1961;-80
2022/09/24 12:59:50;;;;;;;;;;;;;;;16.27;76.23;100150.44;5053132;28;1511;-81
2022/09/24 13:02:27;;;;;;;;;;;;;;;16.26;76.15;100152.38;5054635;28;1578;-80
2022/09/24 13:05:01;;;;;;;;;;;;;;;16.27;76.34;100142.16;5045353;28;1353;-81
2022/09/24 13:07:29;;;;;;;;;;;;;;;16.27;76.14;100145.72;5045152;28;1547;-81
2022/09/24 13:09:55;;;;;;;;;;;;;;;16.28;75.84;100141.81;5046258;28;1169;-80
2022/09/24 13:12:21;;;;;;;;;;;;;;;16.28;76.00;100143.78;5052992;28;2343;-81